sensor_id;sensor_type;location;lat;lon;timestamp;P1;durP1;ratioP1;P2;durP2;ratioP2
23115;SDS011;11727;52.134;5.052;2023-06-05T00:01:11;3.03;;;1.65;;
23115;SDS011;11727;52.134;5.052;2023-06-05T00:03:37;3.38;;;2.00;;
23115;SDS011;11727;52.134;5.052;2023-06-05T00:06:04;4.65;;;2.15;;
23115;SDS011;11727;52.134;5.052;2023-06-05T00:08:31;4.03;;;1.90;;
23115;SDS011;11727;52.134;5.052;2023-06-05T00:10:57;6.13;;;2.20;;
23115;SDS011;11727;52.134;5.052;2023-06-05T00:13:22;6.80;;;1.92;;
23115;SDS011;11727;52.134;5.052;2023-06-05T00:15:48;11.52;;;2.75;;
23115;SDS011;11727;52.134;5.052;2023-06-05T00:18:14;5.20;;;2.13;;
23115;SDS011;11727;52.134;5.052;2023-06-05T00:20:40;4.32;;;2.08;;
23115;SDS011;11727;52.134;5.052;2023-06-05T00:23:06;4.40;;;1.88;;
23115;SDS011;11727;52.134;5.052;2023-06-05T00:25:33;5.37;;;2.50;;
23115;SDS011;11727;52.134;5.052;2023-06-05T00:27:58;9.85;;;3.03;;
23115;SDS011;11727;52.134;5.052;2023-06-05T00:30:24;7.80;;;2.50;;
23115;SDS011;11727;52.134;5.052;2023-06-05T00:32:50;5.28;;;2.20;;
23115;SDS011;11727;52.134;5.052;2023-06-05T00:35:15;7.78;;;2.13;;
23115;SDS011;11727;52.134;5.052;2023-06-05T00:37:41;13.25;;;2.97;;
23115;SDS011;11727;52.134;5.052;2023-06-05T00:40:08;6.68;;;2.47;;
23115;SDS011;11727;52.134;5.052;2023-06-05T00:42:34;6.63;;;2.20;;
23115;SDS011;11727;52.134;5.052;2023-06-05T00:45:00;8.40;;;2.50;;
23115;SDS011;11727;52.134;5.052;2023-06-05T00:47:25;8.93;;;2.08;;
23115;SDS011;11727;52.134;5.052;2023-06-05T00:49:51;3.72;;;2.28;;
23115;SDS011;11727;52.134;5.052;2023-06-05T00:52:17;4.90;;;2.75;;
23115;SDS011;11727;52.134;5.052;2023-06-05T00:54:43;4.40;;;2.22;;
23115;SDS011;11727;52.134;5.052;2023-06-05T00:57:09;6.30;;;2.28;;
23115;SDS011;11727;52.134;5.052;2023-06-05T00:59:35;4.80;;;2.60;;
23115;SDS011;11727;52.134;5.052;2023-06-05T01:02:02;5.35;;;2.78;;
23115;SDS011;11727;52.134;5.052;2023-06-05T01:04:28;6.78;;;2.28;;
23115;SDS011;11727;52.134;5.052;2023-06-05T01:06:54;3.45;;;2.20;;
23115;SDS011;11727;52.134;5.052;2023-06-05T01:09:22;5.85;;;2.25;;
23115;SDS011;11727;52.134;5.052;2023-06-05T01:11:58;6.88;;;2.50;;
23115;SDS011;11727;52.134;5.052;2023-06-05T01:14:27;6.18;;;2.60;;
23115;SDS011;11727;52.134;5.052;2023-06-05T01:16:56;6.03;;;2.45;;
23115;SDS011;11727;52.134;5.052;2023-06-05T01:19:26;3.97;;;2.42;;
23115;SDS011;11727;52.134;5.052;2023-06-05T01:21:56;5.80;;;2.78;;
23115;SDS011;11727;52.134;5.052;2023-06-05T01:24:26;4.80;;;2.10;;
23115;SDS011;11727;52.134;5.052;2023-06-05T01:26:59;5.20;;;2.67;;
23115;SDS011;11727;52.134;5.052;2023-06-05T01:32:35;4.10;;;2.10;;
23115;SDS011;11727;52.134;5.052;2023-06-05T01:35:13;5.75;;;3.00;;
23115;SDS011;11727;52.134;5.052;2023-06-05T01:37:42;6.00;;;2.53;;
23115;SDS011;11727;52.134;5.052;2023-06-05T01:40:13;5.00;;;2.30;;
23115;SDS011;11727;52.134;5.052;2023-06-05T01:42:41;6.60;;;2.65;;
23115;SDS011;11727;52.134;5.052;2023-06-05T01:45:08;8.57;;;2.75;;
23115;SDS011;11727;52.134;5.052;2023-06-05T01:47:35;4.65;;;2.38;;
23115;SDS011;11727;52.134;5.052;2023-06-05T01:50:02;4.53;;;1.98;;
23115;SDS011;11727;52.134;5.052;2023-06-05T01:52:31;9.23;;;2.72;;
23115;SDS011;11727;52.134;5.052;2023-06-05T01:54:58;6.75;;;3.08;;
23115;SDS011;11727;52.134;5.052;2023-06-05T01:57:26;11.85;;;3.33;;
23115;SDS011;11727;52.134;5.052;2023-06-05T02:02:19;14.32;;;3.58;;
23115;SDS011;11727;52.134;5.052;2023-06-05T02:04:44;8.25;;;2.83;;
23115;SDS011;11727;52.134;5.052;2023-06-05T02:07:12;4.63;;;2.67;;
23115;SDS011;11727;52.134;5.052;2023-06-05T02:09:40;7.97;;;3.38;;
23115;SDS011;11727;52.134;5.052;2023-06-05T02:12:06;7.00;;;2.58;;
23115;SDS011;11727;52.134;5.052;2023-06-05T02:14:32;7.13;;;2.80;;
23115;SDS011;11727;52.134;5.052;2023-06-05T02:17:00;5.30;;;3.00;;
23115;SDS011;11727;52.134;5.052;2023-06-05T02:19:31;8.98;;;2.38;;
23115;SDS011;11727;52.134;5.052;2023-06-05T02:22:00;6.97;;;3.28;;
23115;SDS011;11727;52.134;5.052;2023-06-05T02:24:26;7.57;;;3.10;;
23115;SDS011;11727;52.134;5.052;2023-06-05T02:26:52;8.43;;;3.03;;
23115;SDS011;11727;52.134;5.052;2023-06-05T02:29:17;7.60;;;2.90;;
23115;SDS011;11727;52.134;5.052;2023-06-05T02:31:43;4.38;;;2.78;;
23115;SDS011;11727;52.134;5.052;2023-06-05T02:34:09;6.68;;;3.00;;
23115;SDS011;11727;52.134;5.052;2023-06-05T02:36:35;6.97;;;3.08;;
23115;SDS011;11727;52.134;5.052;2023-06-05T02:39:01;5.65;;;2.88;;
23115;SDS011;11727;52.134;5.052;2023-06-05T02:41:28;12.20;;;3.58;;
23115;SDS011;11727;52.134;5.052;2023-06-05T02:43:53;5.13;;;3.00;;
23115;SDS011;11727;52.134;5.052;2023-06-05T02:46:20;6.32;;;2.83;;
23115;SDS011;11727;52.134;5.052;2023-06-05T02:48:46;12.00;;;3.40;;
23115;SDS011;11727;52.134;5.052;2023-06-05T02:51:12;9.07;;;3.22;;
23115;SDS011;11727;52.134;5.052;2023-06-05T02:53:38;5.35;;;2.92;;
23115;SDS011;11727;52.134;5.052;2023-06-05T02:56:04;14.93;;;3.53;;
23115;SDS011;11727;52.134;5.052;2023-06-05T02:58:30;7.38;;;3.75;;
23115;SDS011;11727;52.134;5.052;2023-06-05T03:00:58;5.00;;;2.55;;
23115;SDS011;11727;52.134;5.052;2023-06-05T03:03:30;7.40;;;3.95;;
23115;SDS011;11727;52.134;5.052;2023-06-05T03:05:57;6.22;;;3.08;;
23115;SDS011;11727;52.134;5.052;2023-06-05T03:08:32;6.30;;;3.17;;
23115;SDS011;11727;52.134;5.052;2023-06-05T03:11:02;6.07;;;2.88;;
23115;SDS011;11727;52.134;5.052;2023-06-05T03:13:28;6.25;;;2.97;;
23115;SDS011;11727;52.134;5.052;2023-06-05T03:15:55;6.30;;;3.00;;
23115;SDS011;11727;52.134;5.052;2023-06-05T03:18:23;7.57;;;3.70;;
23115;SDS011;11727;52.134;5.052;2023-06-05T03:20:50;8.55;;;3.35;;
23115;SDS011;11727;52.134;5.052;2023-06-05T03:23:19;4.68;;;2.72;;
23115;SDS011;11727;52.134;5.052;2023-06-05T03:25:48;6.43;;;3.42;;
23115;SDS011;11727;52.134;5.052;2023-06-05T03:28:15;9.77;;;2.97;;
23115;SDS011;11727;52.134;5.052;2023-06-05T03:30:41;4.93;;;2.80;;
23115;SDS011;11727;52.134;5.052;2023-06-05T03:33:06;9.85;;;3.53;;
23115;SDS011;11727;52.134;5.052;2023-06-05T03:35:32;7.50;;;3.45;;
23115;SDS011;11727;52.134;5.052;2023-06-05T03:37:58;7.05;;;3.60;;
23115;SDS011;11727;52.134;5.052;2023-06-05T03:40:24;11.75;;;3.83;;
23115;SDS011;11727;52.134;5.052;2023-06-05T03:42:49;8.65;;;3.30;;
23115;SDS011;11727;52.134;5.052;2023-06-05T03:45:15;6.65;;;3.17;;
23115;SDS011;11727;52.134;5.052;2023-06-05T03:47:41;6.88;;;3.80;;
23115;SDS011;11727;52.134;5.052;2023-06-05T03:50:09;12.25;;;3.47;;
23115;SDS011;11727;52.134;5.052;2023-06-05T03:52:35;7.43;;;3.67;;
23115;SDS011;11727;52.134;5.052;2023-06-05T03:55:05;7.43;;;3.20;;
23115;SDS011;11727;52.134;5.052;2023-06-05T03:57:32;8.40;;;3.47;;
23115;SDS011;11727;52.134;5.052;2023-06-05T03:59:58;7.85;;;3.35;;
23115;SDS011;11727;52.134;5.052;2023-06-05T04:02:24;12.80;;;3.80;;
23115;SDS011;11727;52.134;5.052;2023-06-05T04:04:50;8.57;;;3.30;;
23115;SDS011;11727;52.134;5.052;2023-06-05T04:07:16;10.13;;;3.72;;
23115;SDS011;11727;52.134;5.052;2023-06-05T04:09:42;4.75;;;3.00;;
23115;SDS011;11727;52.134;5.052;2023-06-05T04:12:08;8.18;;;4.00;;
23115;SDS011;11727;52.134;5.052;2023-06-05T04:14:35;8.48;;;4.35;;
23115;SDS011;11727;52.134;5.052;2023-06-05T04:17:01;9.60;;;4.35;;
23115;SDS011;11727;52.134;5.052;2023-06-05T04:19:27;8.23;;;3.67;;
23115;SDS011;11727;52.134;5.052;2023-06-05T04:21:53;10.30;;;3.15;;
23115;SDS011;11727;52.134;5.052;2023-06-05T04:24:19;7.68;;;3.17;;
23115;SDS011;11727;52.134;5.052;2023-06-05T04:26:45;6.63;;;3.20;;
23115;SDS011;11727;52.134;5.052;2023-06-05T04:29:12;8.18;;;3.85;;
23115;SDS011;11727;52.134;5.052;2023-06-05T04:31:40;8.27;;;3.40;;
23115;SDS011;11727;52.134;5.052;2023-06-05T04:34:07;8.20;;;3.90;;
23115;SDS011;11727;52.134;5.052;2023-06-05T04:36:33;6.82;;;4.15;;
23115;SDS011;11727;52.134;5.052;2023-06-05T04:39:00;11.63;;;4.03;;
23115;SDS011;11727;52.134;5.052;2023-06-05T04:41:28;8.05;;;3.30;;
23115;SDS011;11727;52.134;5.052;2023-06-05T04:43:54;7.37;;;3.60;;
23115;SDS011;11727;52.134;5.052;2023-06-05T04:46:22;7.25;;;3.53;;
23115;SDS011;11727;52.134;5.052;2023-06-05T04:48:48;7.82;;;3.17;;
23115;SDS011;11727;52.134;5.052;2023-06-05T04:51:15;7.45;;;3.90;;
23115;SDS011;11727;52.134;5.052;2023-06-05T04:53:40;8.82;;;3.53;;
23115;SDS011;11727;52.134;5.052;2023-06-05T04:56:07;7.45;;;3.58;;
23115;SDS011;11727;52.134;5.052;2023-06-05T04:58:32;9.30;;;3.35;;
23115;SDS011;11727;52.134;5.052;2023-06-05T05:00:58;9.30;;;3.35;;
23115;SDS011;11727;52.134;5.052;2023-06-05T05:03:30;9.77;;;4.03;;
23115;SDS011;11727;52.134;5.052;2023-06-05T05:05:56;7.80;;;3.78;;
23115;SDS011;11727;52.134;5.052;2023-06-05T05:08:22;8.00;;;3.42;;
23115;SDS011;11727;52.134;5.052;2023-06-05T05:10:47;6.85;;;3.45;;
23115;SDS011;11727;52.134;5.052;2023-06-05T05:13:13;5.45;;;2.78;;
23115;SDS011;11727;52.134;5.052;2023-06-05T05:15:39;9.38;;;3.10;;
23115;SDS011;11727;52.134;5.052;2023-06-05T05:18:04;8.27;;;3.38;;
23115;SDS011;11727;52.134;5.052;2023-06-05T05:20:30;7.85;;;3.17;;
23115;SDS011;11727;52.134;5.052;2023-06-05T05:22:58;9.98;;;4.07;;
23115;SDS011;11727;52.134;5.052;2023-06-05T05:25:25;8.57;;;3.42;;
23115;SDS011;11727;52.134;5.052;2023-06-05T05:27:51;6.20;;;3.08;;
23115;SDS011;11727;52.134;5.052;2023-06-05T05:30:17;10.70;;;4.20;;
23115;SDS011;11727;52.134;5.052;2023-06-05T05:32:42;6.97;;;3.55;;
23115;SDS011;11727;52.134;5.052;2023-06-05T05:35:08;10.57;;;4.45;;
23115;SDS011;11727;52.134;5.052;2023-06-05T05:37:34;6.82;;;3.35;;
23115;SDS011;11727;52.134;5.052;2023-06-05T05:39:59;9.23;;;3.85;;
23115;SDS011;11727;52.134;5.052;2023-06-05T05:42:25;11.10;;;4.70;;
23115;SDS011;11727;52.134;5.052;2023-06-05T05:44:50;8.43;;;3.50;;
23115;SDS011;11727;52.134;5.052;2023-06-05T05:47:16;13.48;;;3.90;;
23115;SDS011;11727;52.134;5.052;2023-06-05T05:49:41;7.97;;;4.20;;
23115;SDS011;11727;52.134;5.052;2023-06-05T05:52:07;7.75;;;3.75;;
23115;SDS011;11727;52.134;5.052;2023-06-05T05:54:33;7.97;;;3.35;;
23115;SDS011;11727;52.134;5.052;2023-06-05T05:56:59;10.77;;;3.95;;
23115;SDS011;11727;52.134;5.052;2023-06-05T05:59:25;6.25;;;3.20;;
23115;SDS011;11727;52.134;5.052;2023-06-05T06:01:50;10.32;;;3.80;;
23115;SDS011;11727;52.134;5.052;2023-06-05T06:04:17;8.75;;;3.78;;
23115;SDS011;11727;52.134;5.052;2023-06-05T06:06:43;8.82;;;3.55;;
23115;SDS011;11727;52.134;5.052;2023-06-05T06:09:12;10.52;;;3.47;;
23115;SDS011;11727;52.134;5.052;2023-06-05T06:11:38;5.50;;;3.20;;
23115;SDS011;11727;52.134;5.052;2023-06-05T06:14:04;11.90;;;3.22;;
23115;SDS011;11727;52.134;5.052;2023-06-05T06:16:30;6.03;;;3.25;;
23115;SDS011;11727;52.134;5.052;2023-06-05T06:18:56;9.48;;;3.35;;
23115;SDS011;11727;52.134;5.052;2023-06-05T06:21:22;8.23;;;3.42;;
23115;SDS011;11727;52.134;5.052;2023-06-05T06:23:47;6.50;;;3.20;;
23115;SDS011;11727;52.134;5.052;2023-06-05T06:26:13;5.93;;;3.42;;
23115;SDS011;11727;52.134;5.052;2023-06-05T06:28:39;7.18;;;3.60;;
23115;SDS011;11727;52.134;5.052;2023-06-05T06:31:05;6.82;;;3.22;;
23115;SDS011;11727;52.134;5.052;2023-06-05T06:33:32;4.93;;;2.53;;
23115;SDS011;11727;52.134;5.052;2023-06-05T06:35:57;5.55;;;3.00;;
23115;SDS011;11727;52.134;5.052;2023-06-05T06:38:24;5.50;;;2.95;;
23115;SDS011;11727;52.134;5.052;2023-06-05T06:40:58;7.47;;;3.53;;
23115;SDS011;11727;52.134;5.052;2023-06-05T06:43:24;9.20;;;3.25;;
23115;SDS011;11727;52.134;5.052;2023-06-05T06:45:50;6.13;;;2.70;;
23115;SDS011;11727;52.134;5.052;2023-06-05T06:48:17;7.00;;;3.47;;
23115;SDS011;11727;52.134;5.052;2023-06-05T06:50:43;9.63;;;3.53;;
23115;SDS011;11727;52.134;5.052;2023-06-05T06:53:09;10.57;;;3.67;;
23115;SDS011;11727;52.134;5.052;2023-06-05T06:55:35;10.90;;;3.40;;
23115;SDS011;11727;52.134;5.052;2023-06-05T06:58:01;11.38;;;3.42;;
23115;SDS011;11727;52.134;5.052;2023-06-05T07:00:27;8.85;;;3.20;;
23115;SDS011;11727;52.134;5.052;2023-06-05T07:02:52;6.40;;;3.60;;
23115;SDS011;11727;52.134;5.052;2023-06-05T07:05:18;6.32;;;3.05;;
23115;SDS011;11727;52.134;5.052;2023-06-05T07:07:45;7.50;;;3.38;;
23115;SDS011;11727;52.134;5.052;2023-06-05T07:10:10;9.77;;;3.20;;
23115;SDS011;11727;52.134;5.052;2023-06-05T07:12:36;7.72;;;3.58;;
23115;SDS011;11727;52.134;5.052;2023-06-05T07:15:02;8.23;;;2.97;;
23115;SDS011;11727;52.134;5.052;2023-06-05T07:17:28;6.90;;;3.30;;
23115;SDS011;11727;52.134;5.052;2023-06-05T07:19:55;7.93;;;3.60;;
23115;SDS011;11727;52.134;5.052;2023-06-05T07:22:24;7.38;;;3.38;;
23115;SDS011;11727;52.134;5.052;2023-06-05T07:24:51;4.80;;;2.83;;
23115;SDS011;11727;52.134;5.052;2023-06-05T07:27:18;7.72;;;3.30;;
23115;SDS011;11727;52.134;5.052;2023-06-05T07:29:46;6.38;;;3.00;;
23115;SDS011;11727;52.134;5.052;2023-06-05T07:32:12;4.35;;;2.35;;
23115;SDS011;11727;52.134;5.052;2023-06-05T07:34:38;6.50;;;3.08;;
23115;SDS011;11727;52.134;5.052;2023-06-05T07:37:04;7.22;;;2.55;;
23115;SDS011;11727;52.134;5.052;2023-06-05T07:39:29;7.55;;;2.63;;
23115;SDS011;11727;52.134;5.052;2023-06-05T07:41:55;7.53;;;2.47;;
23115;SDS011;11727;52.134;5.052;2023-06-05T07:44:21;6.35;;;2.67;;
23115;SDS011;11727;52.134;5.052;2023-06-05T07:46:47;5.13;;;2.88;;
23115;SDS011;11727;52.134;5.052;2023-06-05T07:49:13;6.18;;;2.38;;
23115;SDS011;11727;52.134;5.052;2023-06-05T07:51:40;6.13;;;2.55;;
23115;SDS011;11727;52.134;5.052;2023-06-05T07:54:07;3.45;;;2.00;;
23115;SDS011;11727;52.134;5.052;2023-06-05T07:56:34;9.00;;;2.20;;
23115;SDS011;11727;52.134;5.052;2023-06-05T07:59:01;6.55;;;1.58;;
23115;SDS011;11727;52.134;5.052;2023-06-05T08:01:30;4.13;;;1.80;;
23115;SDS011;11727;52.134;5.052;2023-06-05T08:04:01;3.22;;;1.67;;
23115;SDS011;11727;52.134;5.052;2023-06-05T08:06:30;3.10;;;1.50;;
23115;SDS011;11727;52.134;5.052;2023-06-05T08:08:57;3.10;;;1.58;;
23115;SDS011;11727;52.134;5.052;2023-06-05T08:11:24;5.65;;;1.83;;
23115;SDS011;11727;52.134;5.052;2023-06-05T08:13:50;4.30;;;1.80;;
23115;SDS011;11727;52.134;5.052;2023-06-05T08:16:15;3.05;;;1.52;;
23115;SDS011;11727;52.134;5.052;2023-06-05T08:18:41;4.78;;;1.55;;
23115;SDS011;11727;52.134;5.052;2023-06-05T08:21:07;5.18;;;1.50;;
23115;SDS011;11727;52.134;5.052;2023-06-05T08:23:32;3.28;;;1.73;;
23115;SDS011;11727;52.134;5.052;2023-06-05T08:25:58;1.98;;;1.50;;
23115;SDS011;11727;52.134;5.052;2023-06-05T08:28:24;2.13;;;1.33;;
23115;SDS011;11727;52.134;5.052;2023-06-05T08:30:49;2.55;;;1.50;;
23115;SDS011;11727;52.134;5.052;2023-06-05T08:33:17;3.20;;;1.52;;
23115;SDS011;11727;52.134;5.052;2023-06-05T08:35:43;3.78;;;1.70;;
23115;SDS011;11727;52.134;5.052;2023-06-05T08:38:09;2.72;;;1.70;;
23115;SDS011;11727;52.134;5.052;2023-06-05T08:40:34;8.07;;;2.50;;
23115;SDS011;11727;52.134;5.052;2023-06-05T08:43:01;4.22;;;1.95;;
23115;SDS011;11727;52.134;5.052;2023-06-05T08:45:27;3.55;;;2.15;;
23115;SDS011;11727;52.134;5.052;2023-06-05T08:47:54;3.25;;;1.65;;
23115;SDS011;11727;52.134;5.052;2023-06-05T08:50:23;5.93;;;2.08;;
23115;SDS011;11727;52.134;5.052;2023-06-05T08:52:51;4.75;;;1.88;;
23115;SDS011;11727;52.134;5.052;2023-06-05T08:55:17;6.07;;;1.88;;
23115;SDS011;11727;52.134;5.052;2023-06-05T08:57:43;3.90;;;2.00;;
23115;SDS011;11727;52.134;5.052;2023-06-05T09:00:09;3.60;;;1.90;;
23115;SDS011;11727;52.134;5.052;2023-06-05T09:02:37;4.05;;;1.98;;
23115;SDS011;11727;52.134;5.052;2023-06-05T09:07:31;4.80;;;2.13;;
23115;SDS011;11727;52.134;5.052;2023-06-05T09:09:57;3.47;;;2.38;;
23115;SDS011;11727;52.134;5.052;2023-06-05T09:12:23;4.25;;;2.58;;
23115;SDS011;11727;52.134;5.052;2023-06-05T09:14:50;5.00;;;2.13;;
23115;SDS011;11727;52.134;5.052;2023-06-05T09:17:16;4.75;;;2.35;;
23115;SDS011;11727;52.134;5.052;2023-06-05T09:19:42;6.35;;;2.35;;
23115;SDS011;11727;52.134;5.052;2023-06-05T09:22:10;4.80;;;2.30;;
23115;SDS011;11727;52.134;5.052;2023-06-05T09:24:37;4.32;;;2.13;;
23115;SDS011;11727;52.134;5.052;2023-06-05T09:27:04;8.52;;;2.40;;
23115;SDS011;11727;52.134;5.052;2023-06-05T09:29:35;7.43;;;2.45;;
23115;SDS011;11727;52.134;5.052;2023-06-05T09:32:06;7.20;;;2.55;;
23115;SDS011;11727;52.134;5.052;2023-06-05T09:34:35;5.20;;;2.15;;
23115;SDS011;11727;52.134;5.052;2023-06-05T09:39:28;4.27;;;2.00;;
23115;SDS011;11727;52.134;5.052;2023-06-05T09:41:56;4.65;;;2.53;;
23115;SDS011;11727;52.134;5.052;2023-06-05T09:46:52;4.55;;;2.35;;
23115;SDS011;11727;52.134;5.052;2023-06-05T09:49:20;8.02;;;2.22;;
23115;SDS011;11727;52.134;5.052;2023-06-05T09:51:47;7.97;;;2.33;;
23115;SDS011;11727;52.134;5.052;2023-06-05T09:54:13;6.05;;;2.13;;
23115;SDS011;11727;52.134;5.052;2023-06-05T09:56:45;4.30;;;2.08;;
23115;SDS011;11727;52.134;5.052;2023-06-05T09:59:16;4.53;;;2.30;;
23115;SDS011;11727;52.134;5.052;2023-06-05T10:01:45;3.88;;;1.92;;
23115;SDS011;11727;52.134;5.052;2023-06-05T10:04:13;3.70;;;2.17;;
23115;SDS011;11727;52.134;5.052;2023-06-05T10:06:41;4.00;;;2.08;;
23115;SDS011;11727;52.134;5.052;2023-06-05T10:09:08;3.85;;;1.85;;
23115;SDS011;11727;52.134;5.052;2023-06-05T10:11:34;8.70;;;2.28;;
23115;SDS011;11727;52.134;5.052;2023-06-05T10:14:00;4.05;;;1.95;;
23115;SDS011;11727;52.134;5.052;2023-06-05T10:16:28;4.07;;;1.90;;
23115;SDS011;11727;52.134;5.052;2023-06-05T10:18:54;5.18;;;2.22;;
23115;SDS011;11727;52.134;5.052;2023-06-05T10:21:21;4.22;;;2.08;;
23115;SDS011;11727;52.134;5.052;2023-06-05T10:23:48;4.72;;;2.15;;
23115;SDS011;11727;52.134;5.052;2023-06-05T10:31:52;3.83;;;1.80;;
23115;SDS011;11727;52.134;5.052;2023-06-05T10:36:58;4.28;;;2.10;;
23115;SDS011;11727;52.134;5.052;2023-06-05T10:39:48;4.07;;;1.95;;
23115;SDS011;11727;52.134;5.052;2023-06-05T10:42:25;4.15;;;1.98;;
23115;SDS011;11727;52.134;5.052;2023-06-05T10:44:52;5.18;;;1.58;;
23115;SDS011;11727;52.134;5.052;2023-06-05T10:52:50;7.00;;;2.08;;
23115;SDS011;11727;52.134;5.052;2023-06-05T10:55:17;4.53;;;1.33;;
23115;SDS011;11727;52.134;5.052;2023-06-05T11:00:27;5.18;;;1.80;;
23115;SDS011;11727;52.134;5.052;2023-06-05T11:02:56;3.67;;;1.73;;
23115;SDS011;11727;52.134;5.052;2023-06-05T11:05:22;4.47;;;2.17;;
23115;SDS011;11727;52.134;5.052;2023-06-05T11:08:09;7.53;;;1.55;;
23115;SDS011;11727;52.134;5.052;2023-06-05T11:10:35;2.63;;;1.42;;
23115;SDS011;11727;52.134;5.052;2023-06-05T11:13:01;3.00;;;1.30;;
23115;SDS011;11727;52.134;5.052;2023-06-05T11:15:40;2.90;;;1.70;;
23115;SDS011;11727;52.134;5.052;2023-06-05T11:18:26;5.43;;;2.30;;
23115;SDS011;11727;52.134;5.052;2023-06-05T11:20:59;2.88;;;1.50;;
23115;SDS011;11727;52.134;5.052;2023-06-05T11:23:26;3.92;;;1.77;;
23115;SDS011;11727;52.134;5.052;2023-06-05T11:25:55;4.70;;;1.42;;
23115;SDS011;11727;52.134;5.052;2023-06-05T11:28:37;3.55;;;1.63;;
23115;SDS011;11727;52.134;5.052;2023-06-05T11:31:07;5.30;;;2.03;;
23115;SDS011;11727;52.134;5.052;2023-06-05T11:33:33;2.83;;;1.33;;
23115;SDS011;11727;52.134;5.052;2023-06-05T11:36:00;3.58;;;1.92;;
23115;SDS011;11727;52.134;5.052;2023-06-05T11:38:29;7.78;;;2.33;;
23115;SDS011;11727;52.134;5.052;2023-06-05T11:40:54;2.83;;;1.60;;
23115;SDS011;11727;52.134;5.052;2023-06-05T11:43:20;2.22;;;1.45;;
23115;SDS011;11727;52.134;5.052;2023-06-05T11:48:19;3.90;;;1.67;;
23115;SDS011;11727;52.134;5.052;2023-06-05T11:50:51;2.55;;;1.48;;
23115;SDS011;11727;52.134;5.052;2023-06-05T11:53:17;2.75;;;1.58;;
23115;SDS011;11727;52.134;5.052;2023-06-05T11:55:43;3.38;;;2.20;;
23115;SDS011;11727;52.134;5.052;2023-06-05T11:58:29;4.55;;;2.20;;
23115;SDS011;11727;52.134;5.052;2023-06-05T12:01:09;3.95;;;2.00;;
23115;SDS011;11727;52.134;5.052;2023-06-05T12:03:39;3.10;;;1.40;;
23115;SDS011;11727;52.134;5.052;2023-06-05T12:06:05;3.88;;;2.08;;
23115;SDS011;11727;52.134;5.052;2023-06-05T12:08:31;3.97;;;2.20;;
23115;SDS011;11727;52.134;5.052;2023-06-05T12:10:58;7.90;;;1.92;;
23115;SDS011;11727;52.134;5.052;2023-06-05T12:16:10;3.20;;;2.05;;
23115;SDS011;11727;52.134;5.052;2023-06-05T12:18:35;3.67;;;2.05;;
23115;SDS011;11727;52.134;5.052;2023-06-05T12:21:01;4.78;;;2.08;;
23115;SDS011;11727;52.134;5.052;2023-06-05T12:23:31;7.13;;;2.17;;
23115;SDS011;11727;52.134;5.052;2023-06-05T12:26:01;3.97;;;1.83;;
23115;SDS011;11727;52.134;5.052;2023-06-05T12:28:29;5.25;;;2.00;;
23115;SDS011;11727;52.134;5.052;2023-06-05T12:30:55;4.43;;;2.05;;
23115;SDS011;11727;52.134;5.052;2023-06-05T12:33:24;3.88;;;1.92;;
23115;SDS011;11727;52.134;5.052;2023-06-05T12:36:03;5.93;;;2.28;;
23115;SDS011;11727;52.134;5.052;2023-06-05T12:38:30;4.88;;;2.42;;
23115;SDS011;11727;52.134;5.052;2023-06-05T12:41:01;4.30;;;2.00;;
23115;SDS011;11727;52.134;5.052;2023-06-05T12:43:27;3.85;;;1.65;;
23115;SDS011;11727;52.134;5.052;2023-06-05T12:45:52;4.43;;;1.40;;
23115;SDS011;11727;52.134;5.052;2023-06-05T12:48:18;5.50;;;2.20;;
23115;SDS011;11727;52.134;5.052;2023-06-05T12:50:45;5.28;;;2.50;;
23115;SDS011;11727;52.134;5.052;2023-06-05T12:53:11;2.85;;;1.60;;
23115;SDS011;11727;52.134;5.052;2023-06-05T12:55:38;5.57;;;2.00;;
23115;SDS011;11727;52.134;5.052;2023-06-05T12:58:03;5.32;;;1.95;;
23115;SDS011;11727;52.134;5.052;2023-06-05T13:00:29;4.00;;;2.05;;
23115;SDS011;11727;52.134;5.052;2023-06-05T13:02:54;4.40;;;1.98;;
23115;SDS011;11727;52.134;5.052;2023-06-05T13:05:20;8.23;;;1.80;;
23115;SDS011;11727;52.134;5.052;2023-06-05T13:07:46;5.88;;;2.10;;
23115;SDS011;11727;52.134;5.052;2023-06-05T13:10:12;4.85;;;2.17;;
23115;SDS011;11727;52.134;5.052;2023-06-05T13:12:38;3.78;;;2.20;;
23115;SDS011;11727;52.134;5.052;2023-06-05T13:15:03;4.13;;;2.42;;
23115;SDS011;11727;52.134;5.052;2023-06-05T13:17:31;4.85;;;2.22;;
23115;SDS011;11727;52.134;5.052;2023-06-05T13:20:00;7.32;;;2.33;;
23115;SDS011;11727;52.134;5.052;2023-06-05T13:22:31;3.53;;;1.85;;
23115;SDS011;11727;52.134;5.052;2023-06-05T13:24:56;6.85;;;3.10;;
23115;SDS011;11727;52.134;5.052;2023-06-05T13:27:22;3.58;;;1.85;;
23115;SDS011;11727;52.134;5.052;2023-06-05T13:29:48;5.75;;;2.35;;
23115;SDS011;11727;52.134;5.052;2023-06-05T13:32:13;3.78;;;1.80;;
23115;SDS011;11727;52.134;5.052;2023-06-05T13:34:39;4.32;;;2.05;;
23115;SDS011;11727;52.134;5.052;2023-06-05T13:37:05;3.42;;;1.98;;
23115;SDS011;11727;52.134;5.052;2023-06-05T13:39:31;3.60;;;2.13;;
23115;SDS011;11727;52.134;5.052;2023-06-05T13:41:56;3.63;;;2.00;;
23115;SDS011;11727;52.134;5.052;2023-06-05T13:44:22;6.57;;;2.08;;
23115;SDS011;11727;52.134;5.052;2023-06-05T13:46:48;3.47;;;1.95;;
23115;SDS011;11727;52.134;5.052;2023-06-05T13:49:14;3.83;;;2.00;;
23115;SDS011;11727;52.134;5.052;2023-06-05T13:51:40;2.92;;;1.90;;
23115;SDS011;11727;52.134;5.052;2023-06-05T13:54:06;3.60;;;2.30;;
23115;SDS011;11727;52.134;5.052;2023-06-05T13:56:32;5.45;;;2.13;;
23115;SDS011;11727;52.134;5.052;2023-06-05T13:58:58;7.15;;;2.20;;
23115;SDS011;11727;52.134;5.052;2023-06-05T14:01:23;3.72;;;1.70;;
23115;SDS011;11727;52.134;5.052;2023-06-05T14:03:49;10.13;;;2.13;;
23115;SDS011;11727;52.134;5.052;2023-06-05T14:06:16;3.05;;;1.75;;
23115;SDS011;11727;52.134;5.052;2023-06-05T14:08:42;4.60;;;2.30;;
23115;SDS011;11727;52.134;5.052;2023-06-05T14:11:08;3.28;;;1.80;;
23115;SDS011;11727;52.134;5.052;2023-06-05T14:13:35;4.88;;;1.92;;
23115;SDS011;11727;52.134;5.052;2023-06-05T14:16:01;3.22;;;2.00;;
23115;SDS011;11727;52.134;5.052;2023-06-05T14:18:28;3.65;;;2.35;;
23115;SDS011;11727;52.134;5.052;2023-06-05T14:20:54;5.03;;;2.10;;
23115;SDS011;11727;52.134;5.052;2023-06-05T14:23:20;4.70;;;2.10;;
23115;SDS011;11727;52.134;5.052;2023-06-05T14:25:48;3.83;;;2.00;;
23115;SDS011;11727;52.134;5.052;2023-06-05T14:28:17;3.75;;;2.17;;
23115;SDS011;11727;52.134;5.052;2023-06-05T14:30:44;5.85;;;2.10;;
23115;SDS011;11727;52.134;5.052;2023-06-05T14:33:11;6.10;;;2.35;;
23115;SDS011;11727;52.134;5.052;2023-06-05T14:35:36;4.00;;;2.20;;
23115;SDS011;11727;52.134;5.052;2023-06-05T14:38:02;3.17;;;1.92;;
23115;SDS011;11727;52.134;5.052;2023-06-05T14:40:27;4.13;;;2.15;;
23115;SDS011;11727;52.134;5.052;2023-06-05T14:42:54;5.68;;;2.47;;
23115;SDS011;11727;52.134;5.052;2023-06-05T14:45:19;4.10;;;2.20;;
23115;SDS011;11727;52.134;5.052;2023-06-05T14:47:45;5.03;;;2.13;;
23115;SDS011;11727;52.134;5.052;2023-06-05T14:50:12;4.90;;;2.27;;
23115;SDS011;11727;52.134;5.052;2023-06-05T14:52:38;5.00;;;2.28;;
23115;SDS011;11727;52.134;5.052;2023-06-05T14:55:03;3.80;;;2.20;;
23115;SDS011;11727;52.134;5.052;2023-06-05T14:57:29;3.67;;;2.22;;
23115;SDS011;11727;52.134;5.052;2023-06-05T14:59:55;6.70;;;1.90;;
23115;SDS011;11727;52.134;5.052;2023-06-05T15:02:21;3.17;;;1.90;;
23115;SDS011;11727;52.134;5.052;2023-06-05T15:04:50;4.07;;;1.98;;
23115;SDS011;11727;52.134;5.052;2023-06-05T15:07:17;8.57;;;2.95;;
23115;SDS011;11727;52.134;5.052;2023-06-05T15:09:45;5.55;;;2.08;;
23115;SDS011;11727;52.134;5.052;2023-06-05T15:12:11;11.20;;;2.60;;
23115;SDS011;11727;52.134;5.052;2023-06-05T15:14:37;3.75;;;2.00;;
23115;SDS011;11727;52.134;5.052;2023-06-05T15:17:02;6.55;;;2.25;;
23115;SDS011;11727;52.134;5.052;2023-06-05T15:19:28;8.85;;;2.40;;